createdAt,value
2019-04-27T00:00:10.887Z,78.90
2019-04-27T00:02:44.428Z,79.30
2019-04-27T00:05:35.316Z,80.80
2019-04-27T00:08:05.212Z,81.70
2019-04-27T00:10:38.624Z,81.70
2019-04-27T00:13:08.084Z,82.80
2019-04-27T00:15:54.671Z,83.80
2019-04-27T00:18:40.318Z,84.40
2019-04-27T00:21:13.514Z,82.20
2019-04-27T00:23:45.365Z,85.00
2019-04-27T00:26:14.233Z,83.90
2019-04-27T00:28:43.429Z,84.60
2019-04-27T00:31:13.231Z,85.30
2019-04-27T00:33:43.461Z,84.90
2019-04-27T00:36:26.455Z,84.70
2019-04-27T00:38:59.824Z,84.90
2019-04-27T00:41:28.665Z,85.70
2019-04-27T00:43:57.486Z,85.90
2019-04-27T00:46:26.355Z,85.60
2019-04-27T00:48:55.179Z,85.90
2019-04-27T00:51:24.033Z,85.70
2019-04-27T00:53:53.719Z,86.20
2019-04-27T00:56:27.346Z,87.40
2019-04-27T00:59:06.732Z,87.50
2019-04-27T01:01:37.150Z,87.10
2019-04-27T01:04:07.582Z,87.00
2019-04-27T01:06:36.402Z,87.10
2019-04-27T01:09:06.351Z,86.80
2019-04-27T01:11:35.192Z,86.70
2019-04-27T01:14:04.153Z,86.50
2019-04-27T01:16:32.991Z,86.10
2019-04-27T01:19:01.851Z,86.20
2019-04-27T01:21:30.680Z,86.10
2019-04-27T01:23:59.620Z,86.00
2019-04-27T01:26:29.995Z,86.20
2019-04-27T01:29:15.439Z,86.50
2019-04-27T01:31:44.264Z,86.70
2019-04-27T01:34:13.123Z,87.30
2019-04-27T01:36:41.955Z,88.00
2019-04-27T01:39:12.389Z,88.90
2019-04-27T01:41:41.202Z,89.70
2019-04-27T01:44:10.068Z,90.00
2019-04-27T01:46:39.643Z,89.50
2019-04-27T01:49:09.264Z,89.00
2019-04-27T01:51:39.133Z,88.20
2019-04-27T01:54:10.378Z,87.60
2019-04-27T01:56:39.644Z,88.40
2019-04-27T01:59:08.734Z,89.00
2019-04-27T02:01:55.280Z,89.50
2019-04-27T02:04:29.397Z,90.10
2019-04-27T02:06:59.891Z,90.10
2019-04-27T02:09:28.920Z,90.10
2019-04-27T02:11:59.145Z,89.70
2019-04-27T02:14:28.798Z,89.80
2019-04-27T02:16:59.537Z,90.20
2019-04-27T02:19:29.341Z,90.30
2019-04-27T02:21:59.772Z,90.30
2019-04-27T02:24:28.977Z,90.50
2019-04-27T02:26:58.723Z,90.60
2019-04-27T02:29:29.345Z,90.50
2019-04-27T02:32:01.120Z,90.50
2019-04-27T02:34:50.459Z,90.40
2019-04-27T02:37:20.042Z,90.20
2019-04-27T02:39:50.020Z,90.20
2019-04-27T02:42:21.220Z,89.20
2019-04-27T02:44:50.080Z,90.00
2019-04-27T02:47:20.883Z,90.20
2019-04-27T02:49:50.684Z,90.40
2019-04-27T02:52:30.518Z,90.20
2019-04-27T02:54:59.477Z,90.50
2019-04-27T02:57:30.125Z,90.90
2019-04-27T03:00:00.012Z,90.80
2019-04-27T03:02:30.852Z,90.60
2019-04-27T03:05:00.567Z,90.40
2019-04-27T03:07:30.348Z,90.00
2019-04-27T03:10:02.159Z,90.30
2019-04-27T03:12:31.427Z,90.50
2019-04-27T03:15:10.188Z,90.70
2019-04-27T03:17:56.369Z,90.50
2019-04-27T03:20:32.501Z,90.60
2019-04-27T03:23:02.917Z,90.90
2019-04-27T03:25:42.519Z,90.70
2019-04-27T03:28:13.101Z,91.00
2019-04-27T03:30:43.487Z,91.20
2019-04-27T03:33:12.653Z,91.40
2019-04-27T03:35:43.589Z,91.60
2019-04-27T03:38:12.743Z,91.60
2019-04-27T03:40:41.539Z,91.60
2019-04-27T03:43:14.807Z,91.50
2019-04-27T03:45:43.615Z,91.40
2019-04-27T03:48:12.428Z,91.10
2019-04-27T03:50:45.588Z,91.20
2019-04-27T03:53:23.255Z,91.10
2019-04-27T03:56:10.231Z,91.10
2019-04-27T03:58:40.879Z,91.10
2019-04-27T04:01:10.595Z,91.20
2019-04-27T04:03:39.744Z,91.10
2019-04-27T04:06:10.755Z,90.90
2019-04-27T04:08:39.830Z,90.80
2019-04-27T04:11:10.424Z,91.00
2019-04-27T04:13:43.525Z,91.00
2019-04-27T04:16:20.329Z,91.00
2019-04-27T04:19:02.686Z,91.10
2019-04-27T04:21:31.505Z,91.30
2019-04-27T04:24:01.206Z,91.30
2019-04-27T04:26:32.806Z,91.50
2019-04-27T04:29:00.972Z,91.70
2019-04-27T04:31:33.137Z,91.90
2019-04-27T04:34:00.282Z,92.00
2019-04-27T04:36:30.048Z,92.00
2019-04-27T04:39:00.539Z,92.00
2019-04-27T04:41:33.858Z,92.00
2019-04-27T04:44:16.911Z,92.10
2019-04-27T04:46:53.484Z,91.70
2019-04-27T04:49:22.343Z,91.50
2019-04-27T04:51:51.177Z,91.00
2019-04-27T04:54:24.240Z,91.30
2019-04-27T04:56:50.530Z,91.10
2019-04-27T04:59:20.136Z,90.70
2019-04-27T05:01:49.941Z,90.60
2019-04-27T05:04:19.456Z,90.70
2019-04-27T05:06:49.150Z,90.10
2019-04-27T05:09:19.444Z,89.70
2019-04-27T05:11:48.793Z,89.30
2019-04-27T05:14:19.818Z,88.00
2019-04-27T05:16:48.918Z,87.90
2019-04-27T05:19:18.841Z,87.90
2019-04-27T05:21:49.145Z,88.40
2019-04-27T05:24:19.261Z,88.20
2019-04-27T05:26:48.736Z,87.70
2019-04-27T05:29:19.172Z,86.80
2019-04-27T05:31:49.034Z,86.30
2019-04-27T05:34:19.549Z,85.90
2019-04-27T05:36:52.387Z,85.90
2019-04-27T05:39:24.722Z,85.30
2019-04-27T05:41:49.819Z,84.90
2019-04-27T05:44:29.737Z,84.50
2019-04-27T05:47:00.166Z,84.20
2019-04-27T05:49:36.363Z,84.10
2019-04-27T05:52:03.717Z,85.50
2019-04-27T05:54:32.541Z,84.20
2019-04-27T05:57:01.378Z,84.00
2019-04-27T05:59:30.158Z,83.90
2019-04-27T06:01:59.357Z,82.70
2019-04-27T06:04:29.115Z,82.90
2019-04-27T06:07:00.507Z,82.70
2019-04-27T06:09:29.064Z,83.90
2019-04-27T06:11:59.070Z,81.50
2019-04-27T06:14:29.232Z,81.40
2019-04-27T06:16:59.664Z,81.90
2019-04-27T06:19:29.216Z,83.00
2019-04-27T06:21:59.448Z,82.30
2019-04-27T06:24:29.787Z,81.00
2019-04-27T06:26:59.693Z,78.50
2019-04-27T06:29:29.279Z,72.80
2019-04-27T06:31:59.325Z,67.20
2019-04-27T06:34:30.888Z,57.80
2019-04-27T06:36:59.936Z,55.80
2019-04-27T06:39:29.826Z,53.60
2019-04-27T06:42:01.227Z,55.30
2019-04-27T06:44:29.469Z,57.10
2019-04-27T06:46:59.128Z,58.50
2019-04-27T06:49:29.483Z,61.30
2019-04-27T06:51:58.804Z,65.70
2019-04-27T06:54:28.874Z,67.00
2019-04-27T06:56:59.283Z,65.80
2019-04-27T06:59:28.868Z,68.70
2019-04-27T07:02:01.937Z,68.90
2019-04-27T07:04:30.927Z,67.60
2019-04-27T07:07:01.739Z,70.00
2019-04-27T07:09:30.267Z,67.80
2019-04-27T07:12:00.329Z,68.70
2019-04-27T07:14:50.318Z,68.40
2019-04-27T07:17:12.256Z,67.60
2019-04-27T07:19:41.707Z,68.00
2019-04-27T07:22:11.485Z,67.80
2019-04-27T07:24:40.639Z,65.00
2019-04-27T07:27:09.762Z,64.20
2019-04-27T07:29:39.140Z,62.50
2019-04-27T07:32:09.340Z,63.30
2019-04-27T07:34:38.803Z,62.30
2019-04-27T07:37:09.357Z,64.80
2019-04-27T07:39:39.132Z,62.70
2019-04-27T07:42:08.645Z,61.60
2019-04-27T07:44:42.261Z,65.80
2019-04-27T07:47:15.619Z,62.80
2019-04-27T07:49:44.984Z,62.10
2019-04-27T07:52:13.820Z,63.40
2019-04-27T07:54:42.587Z,59.30
2019-04-27T07:57:11.429Z,58.90
2019-04-27T07:59:42.143Z,58.70
2019-04-27T08:02:11.017Z,57.20
2019-04-27T08:04:40.491Z,56.90
2019-04-27T08:07:09.340Z,57.00
2019-04-27T08:09:39.768Z,55.80
2019-04-27T08:12:10.703Z,56.50
2019-04-27T08:14:39.329Z,57.50
2019-04-27T08:17:09.727Z,55.60
2019-04-27T08:19:39.479Z,54.90
2019-04-27T08:22:09.657Z,53.10
2019-04-27T08:24:39.601Z,52.00
2019-04-27T08:27:10.185Z,54.20
2019-04-27T08:29:58.859Z,53.90
2019-04-27T08:32:29.361Z,51.70
2019-04-27T08:34:59.487Z,51.70
2019-04-27T08:37:28.646Z,52.50
2019-04-27T08:39:59.197Z,53.00
2019-04-27T08:42:29.356Z,53.60
2019-04-27T08:44:59.428Z,54.60
2019-04-27T08:47:29.324Z,51.80
2019-04-27T08:49:59.112Z,52.50
2019-04-27T08:52:28.989Z,52.00
2019-04-27T08:54:59.445Z,51.70
2019-04-27T08:57:29.011Z,50.50
2019-04-27T08:59:59.666Z,52.50
2019-04-27T09:02:39.766Z,49.70
2019-04-27T09:04:59.627Z,49.90
2019-04-27T09:07:33.016Z,50.40
2019-04-27T09:10:18.831Z,49.70
2019-04-27T09:12:55.176Z,49.80
2019-04-27T09:15:29.236Z,47.70
2019-04-27T09:17:59.009Z,47.80
2019-04-27T09:20:38.977Z,48.60
2019-04-27T09:23:09.726Z,49.50
2019-04-27T09:25:39.651Z,44.90
2019-04-27T09:28:08.915Z,44.30
2019-04-27T09:30:39.251Z,43.80
2019-04-27T09:33:08.802Z,45.70
2019-04-27T09:35:37.608Z,47.40
2019-04-27T09:38:07.111Z,43.80
2019-04-27T09:40:36.292Z,44.90
2019-04-27T09:43:05.139Z,43.40
2019-04-27T09:45:33.962Z,43.40
2019-04-27T09:48:02.828Z,42.60
2019-04-27T09:50:31.658Z,43.80
2019-04-27T09:53:00.521Z,42.80
2019-04-27T09:55:29.334Z,45.40
2019-04-27T09:57:58.203Z,45.80
2019-04-27T10:00:27.911Z,45.60
2019-04-27T10:02:56.981Z,45.20
2019-04-27T10:05:26.336Z,44.30
2019-04-27T10:07:56.933Z,42.60
2019-04-27T10:10:26.816Z,43.00
2019-04-27T10:12:56.784Z,41.60
2019-04-27T10:15:26.657Z,43.50
2019-04-27T10:17:57.561Z,45.00
2019-04-27T10:20:26.335Z,40.80
2019-04-27T10:22:56.407Z,38.00
2019-04-27T10:25:27.058Z,41.00
2019-04-27T10:27:58.485Z,42.20
2019-04-27T10:30:28.543Z,38.90
2019-04-27T10:32:57.349Z,38.10
2019-04-27T10:35:26.221Z,38.60
2019-04-27T10:37:55.003Z,36.90
2019-04-27T10:40:23.832Z,35.70
2019-04-27T10:42:52.705Z,34.00
2019-04-27T10:45:21.546Z,33.60
2019-04-27T10:47:50.417Z,34.40
2019-04-27T10:50:19.675Z,34.60
2019-04-27T10:52:53.591Z,30.20
2019-04-27T10:55:18.976Z,29.20
2019-04-27T10:57:47.825Z,28.00
2019-04-27T11:00:19.015Z,28.60
2019-04-27T11:02:47.869Z,27.90
2019-04-27T11:05:18.980Z,28.00
2019-04-27T11:07:47.821Z,26.40
2019-04-27T11:10:16.627Z,27.80
2019-04-27T11:12:45.843Z,24.80
2019-04-27T11:15:16.364Z,24.50
2019-04-27T11:17:45.845Z,25.00
2019-04-27T11:20:17.065Z,24.80
2019-04-27T11:22:46.473Z,24.70
2019-04-27T11:25:16.461Z,26.20
2019-04-27T11:27:45.358Z,26.30
2019-04-27T11:30:15.876Z,27.20
2019-04-27T11:32:44.689Z,25.50
2019-04-27T11:35:21.282Z,25.30
2019-04-27T11:37:55.705Z,26.00
2019-04-27T11:40:25.630Z,23.60
2019-04-27T11:42:57.009Z,23.20
2019-04-27T11:45:26.469Z,24.00
2019-04-27T11:47:56.990Z,24.00
2019-04-27T11:50:25.895Z,23.10
2019-04-27T11:52:56.541Z,24.80
2019-04-27T11:55:27.171Z,24.50
2019-04-27T11:57:56.046Z,24.00
2019-04-27T12:00:25.496Z,24.10
2019-04-27T12:02:56.564Z,22.70
2019-04-27T12:05:26.074Z,25.20
2019-04-27T12:07:56.137Z,26.10
2019-04-27T12:10:26.247Z,26.80
2019-04-27T12:12:56.296Z,25.80
2019-04-27T12:15:26.307Z,26.80
2019-04-27T12:17:56.130Z,27.20
2019-04-27T12:20:25.814Z,27.30
2019-04-27T12:22:55.010Z,27.40
2019-04-27T12:25:23.794Z,27.90
2019-04-27T12:27:54.222Z,28.60
2019-04-27T12:30:42.500Z,29.80
2019-04-27T12:33:11.355Z,30.10
2019-04-27T12:35:40.212Z,28.30
2019-04-27T12:38:09.029Z,28.70
2019-04-27T12:40:37.880Z,27.80
2019-04-27T12:43:06.710Z,27.60
2019-04-27T12:45:36.716Z,29.20
2019-04-27T12:48:06.271Z,29.70
2019-04-27T12:50:36.171Z,28.20
2019-04-27T12:53:06.832Z,28.50
2019-04-27T12:55:46.476Z,27.50
2019-04-27T12:58:29.255Z,26.40
2019-04-27T13:00:59.667Z,26.20
2019-04-27T13:03:28.505Z,27.40
2019-04-27T13:05:57.340Z,27.60
2019-04-27T13:08:26.184Z,25.50
2019-04-27T13:10:55.707Z,26.30
2019-04-27T13:13:26.700Z,27.00
2019-04-27T13:15:56.442Z,29.30
2019-04-27T13:18:25.876Z,28.80
2019-04-27T13:20:55.047Z,29.50
2019-04-27T13:23:23.888Z,29.30
2019-04-27T13:25:52.703Z,28.80
2019-04-27T13:28:21.539Z,28.20
2019-04-27T13:30:50.361Z,28.90
2019-04-27T13:33:19.237Z,30.60
2019-04-27T13:35:48.044Z,30.20
2019-04-27T13:38:18.171Z,30.00
2019-04-27T13:40:48.855Z,29.70
2019-04-27T13:43:28.286Z,30.70
2019-04-27T13:46:04.396Z,31.70
2019-04-27T13:48:36.422Z,31.70
2019-04-27T13:51:06.583Z,30.80
2019-04-27T13:53:36.789Z,30.30
2019-04-27T13:56:14.991Z,31.90
2019-04-27T13:58:45.455Z,32.30
2019-04-27T14:01:14.309Z,30.00
2019-04-27T14:03:45.014Z,29.90
2019-04-27T14:06:13.621Z,29.30
2019-04-27T14:08:42.437Z,30.00
2019-04-27T14:11:11.325Z,30.00
2019-04-27T14:13:40.118Z,30.00
2019-04-27T14:16:08.973Z,29.60
2019-04-27T14:18:38.529Z,30.60
2019-04-27T14:21:09.377Z,30.10
2019-04-27T14:23:38.698Z,30.50
2019-04-27T14:26:08.797Z,29.80
2019-04-27T14:28:38.114Z,30.30
2019-04-27T14:31:08.861Z,30.00
2019-04-27T14:33:39.616Z,30.40
2019-04-27T14:36:08.282Z,29.60
2019-04-27T14:38:37.432Z,28.00
2019-04-27T14:41:08.926Z,27.80
2019-04-27T14:43:37.676Z,28.70
2019-04-27T14:46:08.094Z,30.60
2019-04-27T14:48:39.151Z,29.90
2019-04-27T14:51:08.777Z,30.70
2019-04-27T14:53:38.610Z,31.40
2019-04-27T14:56:08.819Z,30.40
2019-04-27T14:58:38.077Z,30.80
2019-04-27T15:01:08.247Z,30.20
2019-04-27T15:03:37.251Z,30.80
2019-04-27T15:06:06.061Z,31.30
2019-04-27T15:08:38.394Z,32.30
2019-04-27T15:11:10.241Z,33.50
2019-04-27T15:13:37.766Z,32.40
2019-04-27T15:16:08.030Z,33.00
2019-04-27T15:18:39.914Z,32.70
2019-04-27T15:21:10.379Z,32.90
2019-04-27T15:23:41.281Z,33.40
2019-04-27T15:26:10.510Z,33.90
2019-04-27T15:28:44.717Z,33.30
2019-04-27T15:31:22.372Z,33.90
2019-04-27T15:34:00.443Z,34.10
2019-04-27T15:36:30.837Z,35.40
2019-04-27T15:39:04.232Z,34.00
2019-04-27T15:41:34.634Z,35.40
2019-04-27T15:44:05.707Z,32.50
2019-04-27T15:46:35.019Z,30.00
2019-04-27T15:49:08.051Z,29.10
2019-04-27T15:51:34.782Z,29.10
2019-04-27T15:54:03.601Z,31.00
2019-04-27T15:56:35.085Z,30.70
2019-04-27T15:59:03.025Z,31.90
2019-04-27T16:01:35.909Z,32.30
2019-04-27T16:04:06.614Z,31.60
2019-04-27T16:06:32.847Z,32.30
2019-04-27T16:09:01.678Z,32.60
2019-04-27T16:11:30.536Z,31.80
2019-04-27T16:14:02.993Z,32.30
2019-04-27T16:16:33.426Z,32.60
2019-04-27T16:19:03.674Z,33.30
2019-04-27T16:21:31.613Z,33.30
2019-04-27T16:24:00.563Z,34.80
2019-04-27T16:26:29.414Z,35.00
2019-04-27T16:28:58.249Z,34.30
2019-04-27T16:31:30.210Z,33.80
2019-04-27T16:33:59.222Z,33.90
2019-04-27T16:36:28.864Z,33.50
2019-04-27T16:39:03.604Z,33.30
2019-04-27T16:41:36.915Z,33.50
2019-04-27T16:44:06.996Z,33.10
2019-04-27T16:46:35.014Z,33.40
2019-04-27T16:49:07.288Z,33.80
2019-04-27T16:54:05.865Z,35.00
2019-04-27T16:56:34.702Z,34.70
2019-04-27T16:59:25.917Z,35.20
2019-04-27T17:01:34.030Z,36.30
2019-04-27T17:04:06.430Z,36.30
2019-04-27T17:06:33.443Z,36.80
2019-04-27T17:09:06.878Z,37.50
2019-04-27T17:11:32.766Z,38.50
2019-04-27T17:12:40.066Z,34.10
2019-04-27T17:14:03.286Z,38.10
2019-04-27T17:16:39.456Z,38.50
2019-04-27T17:19:15.654Z,39.30
2019-04-27T17:21:44.477Z,39.40
2019-04-27T17:24:14.893Z,40.20
2019-04-27T17:26:43.821Z,40.80
2019-04-27T17:29:20.248Z,41.40
2019-04-27T17:31:50.430Z,42.00
2019-04-27T17:34:25.396Z,42.70
2019-04-27T17:36:54.890Z,43.60
2019-04-27T17:39:23.440Z,43.50
2019-04-27T17:41:52.996Z,44.70
2019-04-27T17:44:23.311Z,45.40
2019-04-27T17:46:52.322Z,45.80
2019-04-27T17:49:21.183Z,45.60
2019-04-27T17:51:50.020Z,45.50
2019-04-27T17:54:18.869Z,45.90
2019-04-27T17:56:49.590Z,46.00
2019-04-27T17:59:20.677Z,46.20
2019-04-27T18:01:49.610Z,45.90
2019-04-27T18:04:18.896Z,45.50
2019-04-27T18:06:48.398Z,45.50
2019-04-27T18:09:19.128Z,45.40
2019-04-27T18:11:48.629Z,46.00
2019-04-27T18:14:19.237Z,46.30
2019-04-27T18:16:48.474Z,46.60
2019-04-27T18:19:24.727Z,46.50
2019-04-27T18:22:01.291Z,47.10
2019-04-27T18:24:31.823Z,47.50
2019-04-27T18:27:18.558Z,47.80
2019-04-27T18:29:48.602Z,48.40
2019-04-27T18:32:17.745Z,49.70
2019-04-27T18:34:49.658Z,50.20
2019-04-27T18:37:20.916Z,50.20
2019-04-27T18:39:51.007Z,51.00
2019-04-27T18:42:18.321Z,52.00
2019-04-27T18:44:48.574Z,52.30
2019-04-27T18:47:17.698Z,52.70
2019-04-27T18:50:07.373Z,53.00
2019-04-27T18:52:42.108Z,52.90
2019-04-27T18:55:10.987Z,53.20
2019-04-27T18:57:39.238Z,52.20
2019-04-27T19:00:11.348Z,52.10
2019-04-27T19:02:39.342Z,51.70
2019-04-27T19:05:08.936Z,51.20
2019-04-27T19:07:38.357Z,51.80
2019-04-27T19:10:08.961Z,50.60
2019-04-27T19:12:39.445Z,49.10
2019-04-27T19:15:08.483Z,49.20
2019-04-27T19:17:38.704Z,49.70
2019-04-27T19:20:10.495Z,49.60
2019-04-27T19:22:38.869Z,50.10
2019-04-27T19:25:09.830Z,50.50
2019-04-27T19:27:42.746Z,50.90
2019-04-27T19:30:18.914Z,50.20
2019-04-27T19:32:47.999Z,50.50
2019-04-27T19:35:19.776Z,50.80
2019-04-27T19:37:48.652Z,50.60
2019-04-27T19:40:18.658Z,50.70
2019-04-27T19:42:48.627Z,51.70
2019-04-27T19:45:19.316Z,51.10
2019-04-27T19:47:48.652Z,51.10
2019-04-27T19:50:19.236Z,52.50
2019-04-27T19:52:50.190Z,52.60
2019-04-27T19:55:19.003Z,52.10
2019-04-27T19:57:49.655Z,53.30
2019-04-27T20:00:36.005Z,54.20
2019-04-27T20:03:06.184Z,56.00
2019-04-27T20:05:35.015Z,55.60
2019-04-27T20:08:05.404Z,55.90
2019-04-27T20:10:34.422Z,55.80
2019-04-27T20:13:03.482Z,55.60
2019-04-27T20:15:32.545Z,57.20
2019-04-27T20:18:01.480Z,57.70
2019-04-27T20:20:30.321Z,57.90
2019-04-27T20:22:59.148Z,57.50
2019-04-27T20:25:28.002Z,58.00
2019-04-27T20:27:56.814Z,58.40
2019-04-27T20:30:25.671Z,59.70
2019-04-27T20:32:54.471Z,59.80
2019-04-27T20:35:23.324Z,59.70
2019-04-27T20:37:52.179Z,59.90
2019-04-27T20:40:21.827Z,59.70
2019-04-27T20:42:51.592Z,59.70
2019-04-27T20:45:20.729Z,59.70
2019-04-27T20:47:52.373Z,59.90
2019-04-27T20:50:20.042Z,60.20
2019-04-27T20:52:50.480Z,59.50
2019-04-27T20:55:21.216Z,59.70
2019-04-27T20:57:59.676Z,60.20
2019-04-27T21:00:22.007Z,61.40
2019-04-27T21:02:55.098Z,62.40
2019-04-27T21:05:25.477Z,61.20
2019-04-27T21:08:01.771Z,61.60
2019-04-27T21:10:30.807Z,61.50
2019-04-27T21:13:01.092Z,60.90
2019-04-27T21:15:31.503Z,61.50
2019-04-27T21:18:01.289Z,61.80
2019-04-27T21:20:30.980Z,59.30
2019-04-27T21:23:01.805Z,59.00
2019-04-27T21:25:31.579Z,59.50
2019-04-27T21:28:14.942Z,59.80
2019-04-27T21:30:31.633Z,61.00
2019-04-27T21:33:01.097Z,61.60
2019-04-27T21:35:30.339Z,61.60
2019-04-27T21:38:01.139Z,60.10
2019-04-27T21:40:30.698Z,59.80
2019-04-27T21:43:01.150Z,62.50
2019-04-27T21:45:31.794Z,62.70
2019-04-27T21:48:00.925Z,62.20
2019-04-27T21:50:31.443Z,62.10
2019-04-27T21:53:07.999Z,62.80
2019-04-27T21:55:38.367Z,62.80
2019-04-27T21:58:07.186Z,62.90
2019-04-27T22:00:42.726Z,61.80
2019-04-27T22:03:13.649Z,60.80
2019-04-27T22:05:42.493Z,60.30
2019-04-27T22:08:11.760Z,61.20
2019-04-27T22:10:41.333Z,61.30
2019-04-27T22:13:10.110Z,62.50
2019-04-27T22:15:38.924Z,61.80
2019-04-27T22:18:07.884Z,61.10
2019-04-27T22:20:37.215Z,60.40
2019-04-27T22:23:07.648Z,60.20
2019-04-27T22:25:37.969Z,60.50
2019-04-27T22:28:06.817Z,60.70
2019-04-27T22:30:35.959Z,60.80
2019-04-27T22:33:05.008Z,60.10
2019-04-27T22:35:33.770Z,59.50
2019-04-27T22:38:02.620Z,59.40
2019-04-27T22:40:50.768Z,60.70
2019-04-27T22:43:37.907Z,61.50
2019-04-27T22:46:08.316Z,62.00
2019-04-27T22:48:37.177Z,63.00
2019-04-27T22:51:05.997Z,64.30
2019-04-27T22:53:34.856Z,64.50
2019-04-27T22:56:13.891Z,60.80
2019-04-27T22:59:04.069Z,60.50
2019-04-27T23:01:53.157Z,60.50
2019-04-27T23:04:23.567Z,60.70
2019-04-27T23:06:52.389Z,61.00
2019-04-27T23:09:21.889Z,61.30
2019-04-27T23:11:51.649Z,61.80
2019-04-27T23:14:21.195Z,62.80
2019-04-27T23:16:54.766Z,63.60
2019-04-27T23:19:23.651Z,64.60
2019-04-27T23:21:53.244Z,65.30
2019-04-27T23:24:22.354Z,66.10
2019-04-27T23:26:51.174Z,66.70
2019-04-27T23:29:21.383Z,66.80
2019-04-27T23:31:52.718Z,66.90
2019-04-27T23:34:21.731Z,67.80
2019-04-27T23:36:50.536Z,69.10
2019-04-27T23:39:19.375Z,70.60
2019-04-27T23:41:48.201Z,69.90
2019-04-27T23:44:17.007Z,70.60
2019-04-27T23:46:45.856Z,71.10
2019-04-27T23:49:14.703Z,71.70
2019-04-27T23:51:51.011Z,72.60
2019-04-27T23:54:19.769Z,73.40
2019-04-27T23:56:48.631Z,73.80
2019-04-27T23:59:24.763Z,74.00
